Battens Crossroads, Alabama
Current Conditions -  °F | °C
As of 11:55 PM on Saturday 22 Nov 2014 (Local Time) from KEDN Reporting Station
Light Rain Light Rain  
Wind Chill: 59°   Ceiling: 600
Heat Index: 59°   Visibility: 10mi
Dew Point: 57°   Wind: 10mph
Humidity: 94%   Direction: 100°E
Pressure: 30.05"   Gusts: NA
Location:  31.1786°N, 85.9181°W
Report Text: KEDN 230555Z AUTO 10009KT 10SM -RA OVC006 15/14 A3005 RMK AO2 P0003
Loading
Personal Weather Stations






























Interactive Weather Map New forecast layout! Learn more

10-Day Weather Forecast

Advertisements
Track Severe Weather on mobile